createdAt,value
2022-12-17T00:02:20.515Z,42.25
2022-12-17T00:05:05.624Z,30.63
2022-12-17T00:07:52.034Z,44.95
2022-12-17T00:10:37.210Z,35.15
2022-12-17T00:13:22.638Z,35.65
2022-12-17T00:16:09.836Z,33.65
2022-12-17T00:18:55.360Z,38.75
2022-12-17T00:21:41.732Z,36.90
2022-12-17T00:24:28.296Z,38.65
2022-12-17T00:27:13.626Z,32.88
2022-12-17T00:29:55.286Z,36.92
2022-12-17T00:32:40.870Z,34.08
2022-12-17T00:35:26.603Z,33.33
2022-12-17T00:38:11.960Z,36.58
2022-12-17T00:40:58.720Z,33.92
2022-12-17T00:43:43.938Z,33.42
2022-12-17T00:46:29.378Z,38.97
2022-12-17T00:49:14.652Z,37.55
2022-12-17T00:52:00.034Z,31.15
2022-12-17T00:54:45.178Z,40.65
2022-12-17T00:57:40.180Z,33.63
2022-12-17T01:00:27.086Z,35.80
2022-12-17T01:03:12.540Z,34.67
2022-12-17T01:05:57.971Z,39.00
2022-12-17T01:08:43.367Z,40.28
2022-12-17T01:11:43.068Z,33.28
2022-12-17T01:14:29.630Z,38.53
2022-12-17T01:17:14.778Z,39.42
2022-12-17T01:20:00.119Z,34.97
2022-12-17T01:22:45.381Z,37.38
2022-12-17T01:25:30.789Z,39.95
2022-12-17T01:28:15.977Z,40.03
2022-12-17T01:31:02.718Z,39.22
2022-12-17T01:33:48.009Z,40.28
2022-12-17T01:36:33.329Z,39.58
2022-12-17T01:39:18.697Z,39.53
2022-12-17T01:42:03.631Z,42.38
2022-12-17T01:45:12.667Z,42.42
2022-12-17T01:48:02.213Z,40.65
2022-12-17T01:50:49.912Z,36.58
2022-12-17T01:53:38.319Z,38.40
2022-12-17T01:56:25.464Z,38.97
2022-12-17T01:59:11.343Z,38.28
2022-12-17T02:01:56.948Z,35.47
2022-12-17T02:04:44.009Z,37.35
2022-12-17T02:07:39.346Z,40.75
2022-12-17T02:10:34.873Z,42.70
2022-12-17T02:13:26.788Z,39.97
2022-12-17T02:16:13.890Z,39.35
2022-12-17T02:19:02.795Z,46.17
2022-12-17T02:21:50.029Z,38.83
2022-12-17T02:24:41.895Z,33.47
2022-12-17T02:27:28.925Z,34.53
2022-12-17T02:30:16.730Z,35.60
2022-12-17T02:33:03.401Z,40.83
2022-12-17T02:35:51.826Z,36.03
2022-12-17T02:38:39.201Z,35.80
2022-12-17T02:41:24.773Z,35.65
2022-12-17T02:44:12.007Z,39.25
2022-12-17T02:46:57.758Z,37.92
2022-12-17T02:49:43.075Z,44.03
2022-12-17T02:52:34.564Z,40.45
2022-12-17T02:55:20.333Z,39.42
2022-12-17T02:58:05.319Z,39.40
2022-12-17T03:00:51.855Z,37.38
2022-12-17T03:03:50.416Z,38.40
2022-12-17T03:06:35.971Z,39.38
2022-12-17T03:09:21.359Z,38.53
2022-12-17T03:12:06.600Z,46.88
2022-12-17T03:14:51.964Z,39.30
2022-12-17T03:17:38.347Z,50.95
2022-12-17T03:20:24.242Z,41.60
2022-12-17T03:23:09.459Z,44.65
2022-12-17T03:25:54.677Z,43.05
2022-12-17T03:28:40.098Z,40.17
2022-12-17T03:31:25.299Z,46.22
2022-12-17T03:34:12.327Z,39.92
2022-12-17T03:36:57.682Z,43.58
2022-12-17T03:39:42.831Z,43.15
2022-12-17T03:42:28.203Z,40.53
2022-12-17T03:45:13.197Z,46.13
2022-12-17T03:47:58.634Z,40.33
2022-12-17T03:50:45.512Z,46.03
2022-12-17T03:53:30.647Z,38.15
2022-12-17T03:56:15.909Z,40.72
2022-12-17T03:59:01.270Z,41.95
2022-12-17T04:01:46.766Z,39.40
2022-12-17T04:04:32.166Z,46.92
2022-12-17T04:07:18.791Z,46.38
2022-12-17T04:10:04.060Z,42.72
2022-12-17T04:12:57.691Z,41.45
2022-12-17T04:15:43.040Z,36.55
2022-12-17T04:18:28.314Z,37.63
2022-12-17T04:21:13.576Z,39.70
2022-12-17T04:24:00.134Z,47.33
2022-12-17T04:26:45.436Z,39.53
2022-12-17T04:29:30.811Z,43.85
2022-12-17T04:32:31.121Z,36.30
2022-12-17T04:35:30.324Z,37.38
2022-12-17T04:38:15.469Z,38.63
2022-12-17T04:41:01.923Z,43.80
2022-12-17T04:43:47.149Z,41.38
2022-12-17T04:46:32.627Z,42.75
2022-12-17T04:49:17.563Z,41.67
2022-12-17T04:52:02.680Z,40.40
2022-12-17T04:54:47.687Z,45.38
2022-12-17T04:57:34.355Z,41.97
2022-12-17T05:00:19.862Z,40.17
2022-12-17T05:03:05.044Z,37.40
2022-12-17T05:05:50.345Z,41.92
2022-12-17T05:08:41.069Z,46.25
2022-12-17T05:11:26.942Z,45.38
2022-12-17T05:14:13.625Z,35.47
2022-12-17T05:16:59.012Z,45.42
2022-12-17T05:19:49.343Z,42.33
2022-12-17T05:22:34.567Z,41.60
2022-12-17T05:25:19.860Z,39.67
2022-12-17T05:28:05.099Z,44.47
2022-12-17T05:30:51.640Z,45.92
2022-12-17T05:33:37.288Z,43.70
2022-12-17T05:36:22.733Z,42.25
2022-12-17T05:39:08.274Z,40.15
2022-12-17T05:41:53.674Z,40.65
2022-12-17T05:44:42.657Z,45.92
2022-12-17T05:47:28.945Z,55.80
2022-12-17T05:50:14.357Z,44.42
2022-12-17T05:52:59.782Z,41.70
2022-12-17T05:55:45.089Z,38.85
2022-12-17T05:58:30.584Z,38.30
2022-12-17T06:01:25.169Z,44.58
2022-12-17T06:04:11.661Z,39.90
2022-12-17T06:06:56.930Z,39.95
2022-12-17T06:09:42.276Z,42.10
2022-12-17T06:12:27.412Z,46.72
2022-12-17T06:15:18.118Z,44.28
2022-12-17T06:18:15.079Z,46.15
2022-12-17T06:21:03.754Z,46.90
2022-12-17T06:23:49.117Z,44.55
2022-12-17T06:26:34.402Z,48.47
2022-12-17T06:29:19.479Z,49.70
2022-12-17T06:32:04.848Z,48.95
2022-12-17T06:34:50.055Z,40.25
2022-12-17T06:37:36.708Z,42.80
2022-12-17T06:40:22.555Z,46.78
2022-12-17T06:43:11.864Z,46.75
2022-12-17T06:45:57.115Z,45.63
2022-12-17T06:48:42.590Z,46.97
2022-12-17T06:51:27.550Z,45.88
2022-12-17T06:54:13.960Z,45.60
2022-12-17T06:56:59.313Z,46.33
2022-12-17T06:59:56.312Z,40.53
2022-12-17T07:02:41.476Z,50.70
2022-12-17T07:05:26.806Z,47.65
2022-12-17T07:08:15.744Z,40.20
2022-12-17T07:11:02.151Z,41.15
2022-12-17T07:13:47.426Z,40.60
2022-12-17T07:16:32.985Z,41.22
2022-12-17T07:19:21.393Z,45.72
2022-12-17T07:22:09.239Z,49.35
2022-12-17T07:24:54.917Z,43.85
2022-12-17T07:27:41.859Z,40.30
2022-12-17T07:30:27.776Z,42.63
2022-12-17T07:33:17.347Z,44.97
2022-12-17T07:36:02.714Z,40.42
2022-12-17T07:38:47.852Z,42.03
2022-12-17T07:41:32.907Z,40.85
2022-12-17T07:44:19.237Z,41.10
2022-12-17T07:47:04.641Z,45.63
2022-12-17T07:49:50.117Z,42.78
2022-12-17T07:52:35.097Z,54.50
2022-12-17T07:55:20.432Z,46.70
2022-12-17T07:58:05.753Z,53.53
2022-12-17T08:00:52.318Z,48.05
2022-12-17T08:03:38.468Z,51.38
2022-12-17T08:06:24.399Z,44.85
2022-12-17T08:09:09.825Z,55.35
2022-12-17T08:11:54.952Z,50.97
2022-12-17T08:14:40.082Z,45.92
2022-12-17T08:17:26.781Z,48.70
2022-12-17T08:20:12.243Z,52.83
2022-12-17T08:22:57.288Z,50.75
2022-12-17T08:25:42.619Z,65.50
2022-12-17T08:28:49.465Z,63.25
2022-12-17T08:31:33.284Z,53.38
2022-12-17T08:34:20.016Z,53.47
2022-12-17T08:37:05.533Z,49.10
2022-12-17T08:39:50.531Z,47.38
2022-12-17T08:42:35.803Z,51.88
2022-12-17T08:45:21.042Z,52.20
2022-12-17T08:48:06.250Z,52.90
2022-12-17T08:50:52.875Z,48.17
2022-12-17T08:53:38.322Z,47.83
2022-12-17T08:56:24.939Z,46.97
2022-12-17T08:59:09.953Z,52.50
2022-12-17T09:01:55.319Z,49.85
2022-12-17T09:04:40.489Z,55.35
2022-12-17T09:07:26.964Z,51.40
2022-12-17T09:10:12.274Z,52.78
2022-12-17T09:13:02.674Z,51.58
2022-12-17T09:18:37.424Z,49.00
2022-12-17T09:21:22.896Z,40.05
2022-12-17T09:24:09.754Z,34.55
2022-12-17T09:26:54.803Z,38.53
2022-12-17T09:29:39.798Z,45.13
2022-12-17T09:32:25.227Z,40.17
2022-12-17T09:35:10.287Z,41.53
2022-12-17T09:37:55.620Z,36.58
2022-12-17T09:40:43.291Z,40.60
2022-12-17T09:43:40.557Z,39.15
2022-12-17T09:46:31.007Z,39.97
2022-12-17T09:49:20.630Z,40.47
2022-12-17T09:52:05.699Z,37.97
2022-12-17T09:54:57.717Z,36.67
2022-12-17T09:57:51.170Z,35.47
2022-12-17T10:00:39.087Z,41.28
2022-12-17T10:03:29.534Z,37.50
2022-12-17T10:06:22.261Z,38.45
2022-12-17T10:09:11.587Z,46.20
2022-12-17T10:11:56.681Z,35.65
2022-12-17T10:14:44.685Z,37.20
2022-12-17T10:17:33.156Z,36.83
2022-12-17T10:20:18.639Z,47.70
2022-12-17T10:23:05.479Z,36.53
2022-12-17T10:25:50.921Z,35.53
2022-12-17T10:28:37.769Z,33.95
2022-12-17T10:31:28.851Z,36.72
2022-12-17T10:34:15.317Z,41.33
2022-12-17T10:37:04.331Z,41.13
2022-12-17T10:39:49.636Z,45.50
2022-12-17T10:42:42.938Z,40.42
2022-12-17T10:45:42.541Z,47.70
2022-12-17T10:48:43.097Z,43.03
2022-12-17T10:51:38.161Z,40.35
2022-12-17T10:54:28.343Z,38.63
2022-12-17T10:57:16.657Z,37.60
2022-12-17T11:00:02.019Z,43.47
2022-12-17T11:02:48.966Z,41.80
2022-12-17T11:05:42.636Z,41.30
2022-12-17T11:08:28.849Z,45.97
2022-12-17T11:11:14.266Z,45.65
2022-12-17T11:13:58.459Z,47.53
2022-12-17T11:16:45.145Z,41.95
2022-12-17T11:19:47.826Z,43.95
2022-12-17T11:22:42.719Z,40.92
2022-12-17T11:25:41.556Z,46.25
2022-12-17T11:28:33.721Z,52.20
2022-12-17T11:31:26.062Z,43.80
2022-12-17T11:37:02.778Z,46.85
2022-12-17T11:39:55.012Z,45.35
2022-12-17T11:42:44.634Z,50.67
2022-12-17T11:45:37.435Z,52.33
2022-12-17T11:48:28.587Z,44.95
2022-12-17T11:51:13.242Z,45.92
2022-12-17T11:54:06.320Z,42.88
2022-12-17T11:56:57.272Z,46.20
2022-12-17T11:59:50.984Z,40.25
2022-12-17T12:02:51.984Z,42.53
2022-12-17T12:05:44.072Z,33.78
2022-12-17T12:08:36.469Z,44.90
2022-12-17T12:11:32.582Z,43.60
2022-12-17T12:14:26.088Z,43.13
2022-12-17T12:17:16.835Z,46.03
2022-12-17T12:20:07.196Z,53.13
2022-12-17T12:22:58.515Z,51.13
2022-12-17T12:25:51.868Z,44.60
2022-12-17T12:28:46.761Z,45.92
2022-12-17T12:31:43.350Z,40.58
2022-12-17T12:34:32.036Z,42.90
2022-12-17T12:37:20.179Z,44.95
2022-12-17T12:40:10.068Z,42.83
2022-12-17T12:43:02.581Z,40.03
2022-12-17T12:46:00.320Z,39.85
2022-12-17T12:48:57.975Z,42.13
2022-12-17T12:51:46.038Z,40.35
2022-12-17T12:54:43.783Z,42.13
2022-12-17T13:16:54.511Z,43.05
2022-12-17T13:24:11.322Z,44.80
2022-12-17T13:26:47.676Z,52.58
2022-12-17T13:29:24.192Z,39.47
2022-12-17T13:32:17.778Z,41.55
2022-12-17T13:34:55.754Z,43.35
2022-12-17T13:37:31.736Z,47.13
2022-12-17T13:40:05.637Z,44.55
2022-12-17T13:42:36.013Z,38.55
2022-12-17T13:45:03.981Z,42.60
2022-12-17T13:47:34.561Z,41.05
2022-12-17T13:50:32.936Z,41.58
2022-12-17T13:52:51.461Z,45.45
2022-12-17T13:55:21.108Z,44.58
2022-12-17T13:57:49.927Z,45.05
2022-12-17T14:00:22.992Z,44.63
2022-12-17T14:02:52.612Z,41.65
2022-12-17T14:05:26.628Z,43.28
2022-12-17T14:07:54.988Z,43.42
2022-12-17T14:10:22.713Z,36.92
2022-12-17T14:12:50.134Z,40.25
2022-12-17T14:15:25.569Z,42.65
2022-12-17T14:17:55.422Z,40.13
2022-12-17T14:20:24.657Z,47.47
2022-12-17T14:22:54.203Z,35.15
2022-12-17T14:25:23.942Z,43.80
2022-12-17T14:27:55.288Z,44.95
2022-12-17T14:30:25.247Z,50.42
2022-12-17T14:32:54.330Z,48.75
2022-12-17T14:35:27.058Z,44.65
2022-12-17T14:37:54.769Z,41.47
2022-12-17T14:40:23.447Z,52.20
2022-12-17T14:42:51.357Z,53.15
2022-12-17T14:45:24.644Z,46.75
2022-12-17T14:47:57.903Z,45.10
2022-12-17T14:50:28.950Z,48.53
2022-12-17T14:52:57.917Z,44.23
2022-12-17T14:55:36.751Z,44.50
2022-12-17T14:58:19.099Z,49.63
2022-12-17T15:00:49.024Z,42.20
2022-12-17T15:03:26.651Z,42.72
2022-12-17T15:05:58.241Z,40.50
2022-12-17T15:08:26.241Z,36.72
2022-12-17T15:10:54.287Z,38.20
2022-12-17T15:13:21.993Z,36.15
2022-12-17T15:15:49.670Z,38.83
2022-12-17T15:18:17.435Z,41.92
2022-12-17T15:20:46.480Z,43.20
2022-12-17T15:23:17.040Z,42.17
2022-12-17T15:25:47.091Z,42.55
2022-12-17T15:28:16.987Z,36.35
2022-12-17T15:30:44.852Z,43.53
2022-12-17T15:33:13.070Z,31.85
2022-12-17T15:35:41.282Z,41.08
2022-12-17T15:38:11.403Z,35.80
2022-12-17T15:40:39.205Z,35.45
2022-12-17T15:43:11.635Z,39.58
2022-12-17T15:45:41.247Z,42.42
2022-12-17T15:48:09.199Z,35.00
2022-12-17T15:50:37.111Z,34.60
2022-12-17T15:53:05.023Z,37.78
2022-12-17T15:55:34.103Z,35.60
2022-12-17T15:58:01.847Z,27.42
2022-12-17T16:00:29.664Z,27.60
2022-12-17T16:02:57.503Z,34.67
2022-12-17T16:05:25.573Z,34.20
2022-12-17T16:07:53.489Z,31.05
2022-12-17T16:10:21.165Z,35.72
2022-12-17T16:12:50.309Z,28.42
2022-12-17T16:15:18.413Z,34.60
2022-12-17T16:17:46.268Z,34.05
2022-12-17T16:20:13.984Z,34.13
2022-12-17T16:22:41.706Z,32.75
2022-12-17T16:25:10.187Z,39.72
2022-12-17T16:27:37.996Z,39.45
2022-12-17T16:30:08.462Z,33.85
2022-12-17T16:32:36.913Z,36.78
2022-12-17T16:35:05.891Z,43.10
2022-12-17T16:37:33.833Z,47.30
2022-12-17T16:40:01.744Z,52.45
2022-12-17T16:42:29.481Z,50.65
2022-12-17T16:44:57.216Z,45.17
2022-12-17T16:47:27.022Z,43.42
2022-12-17T16:49:54.846Z,46.15
2022-12-17T16:52:22.952Z,50.17
2022-12-17T16:54:51.035Z,54.63
2022-12-17T16:57:18.838Z,46.65
2022-12-17T16:59:46.972Z,40.00
2022-12-17T17:02:16.264Z,41.53
2022-12-17T17:04:45.494Z,50.72
2022-12-17T17:07:13.161Z,45.15
2022-12-17T17:09:40.904Z,48.22
2022-12-17T17:12:09.174Z,49.55
2022-12-17T17:14:37.098Z,53.85
2022-12-17T17:17:05.377Z,44.08
2022-12-17T17:19:33.289Z,44.58
2022-12-17T17:22:03.004Z,52.08
2022-12-17T17:24:31.240Z,54.05
2022-12-17T17:26:59.438Z,56.83
2022-12-17T17:29:27.914Z,53.65
2022-12-17T17:32:13.978Z,48.85
2022-12-17T17:34:42.808Z,47.38
2022-12-17T17:37:13.754Z,51.20
2022-12-17T17:39:42.168Z,47.67
2022-12-17T17:42:10.302Z,47.30
2022-12-17T17:44:38.793Z,46.75
2022-12-17T17:47:07.745Z,46.60
2022-12-17T17:49:35.890Z,38.90
2022-12-17T17:52:12.280Z,48.30
2022-12-17T17:54:42.359Z,41.05
2022-12-17T17:57:10.910Z,43.70
2022-12-17T17:59:40.345Z,43.78
2022-12-17T18:02:09.047Z,45.15
2022-12-17T18:04:37.381Z,54.65
2022-12-17T18:09:55.186Z,42.05
2022-12-17T18:12:41.376Z,41.55
2022-12-17T18:15:14.733Z,37.25
2022-12-17T18:17:43.757Z,40.85
2022-12-17T18:20:12.465Z,43.33
2022-12-17T18:22:40.394Z,37.50
2022-12-17T18:25:10.690Z,36.58
2022-12-17T18:27:38.773Z,34.83
2022-12-17T18:30:07.681Z,38.90
2022-12-17T18:32:35.745Z,35.35
2022-12-17T18:35:03.788Z,36.25
2022-12-17T18:37:31.863Z,37.20
2022-12-17T18:39:59.927Z,41.92
2022-12-17T18:42:47.092Z,36.00
2022-12-17T18:45:15.044Z,44.40
2022-12-17T18:47:44.701Z,39.42
2022-12-17T18:50:13.386Z,46.28
2022-12-17T18:52:41.319Z,38.25
2022-12-17T18:55:12.659Z,36.70
2022-12-17T18:57:42.047Z,39.22
2022-12-17T19:00:11.554Z,42.95
2022-12-17T19:02:40.179Z,39.33
2022-12-17T19:05:09.374Z,33.05
2022-12-17T19:07:37.319Z,40.40
2022-12-17T19:10:06.106Z,56.10
2022-12-17T19:12:33.994Z,40.63
2022-12-17T19:15:03.364Z,39.55
2022-12-17T19:17:31.235Z,50.55
2022-12-17T19:19:59.147Z,55.17
2022-12-17T19:22:27.250Z,45.95
2022-12-17T19:25:04.470Z,37.28
2022-12-17T19:27:32.319Z,38.05
2022-12-17T19:30:00.083Z,38.38
2022-12-17T19:32:29.198Z,41.15
2022-12-17T19:34:56.819Z,34.00
2022-12-17T19:37:24.563Z,33.25
2022-12-17T19:39:52.324Z,41.97
2022-12-17T19:42:25.841Z,37.60
2022-12-17T19:44:54.874Z,35.40
2022-12-17T19:47:23.523Z,42.58
2022-12-17T19:49:52.558Z,43.38
2022-12-17T19:52:20.284Z,41.28
2022-12-17T19:54:47.899Z,43.85
2022-12-17T19:57:15.577Z,40.90
2022-12-17T19:59:43.246Z,43.30
2022-12-17T20:02:11.251Z,39.28
2022-12-17T20:04:39.215Z,52.60
2022-12-17T20:07:08.261Z,45.92
2022-12-17T20:09:35.906Z,39.80
2022-12-17T20:12:03.844Z,46.55
2022-12-17T20:14:32.630Z,54.45
2022-12-17T20:17:01.276Z,48.25
2022-12-17T20:19:31.230Z,50.58
2022-12-17T20:21:59.993Z,53.85
2022-12-17T20:24:31.823Z,48.25
2022-12-17T20:27:00.860Z,50.53
2022-12-17T20:29:28.875Z,42.50
2022-12-17T20:31:57.199Z,51.38
2022-12-17T20:34:25.626Z,53.55
2022-12-17T20:36:54.116Z,46.83
2022-12-17T20:39:27.144Z,48.65
2022-12-17T20:41:57.432Z,54.38
2022-12-17T20:44:25.252Z,50.28
2022-12-17T20:46:53.103Z,62.38
2022-12-17T20:49:20.967Z,55.65
2022-12-17T20:51:48.666Z,55.30
2022-12-17T20:54:16.616Z,50.75
2022-12-17T20:56:44.492Z,62.28
2022-12-17T20:59:16.660Z,63.05
2022-12-17T21:01:44.986Z,58.85
2022-12-17T21:04:13.288Z,49.17
2022-12-17T21:06:42.363Z,51.08
2022-12-17T21:09:10.274Z,51.65
2022-12-17T21:11:39.332Z,52.95
2022-12-17T21:14:11.942Z,50.20
2022-12-17T21:16:41.613Z,46.28
2022-12-17T21:19:10.435Z,55.55
2022-12-17T21:21:39.006Z,53.08
2022-12-17T21:24:08.160Z,49.30
2022-12-17T21:26:37.269Z,54.85
2022-12-17T21:29:06.353Z,50.00
2022-12-17T21:31:36.333Z,51.30
2022-12-17T21:34:06.706Z,47.53
2022-12-17T21:36:35.200Z,50.47
2022-12-17T21:39:08.677Z,47.83
2022-12-17T21:41:38.378Z,50.78
2022-12-17T21:44:08.586Z,59.92
2022-12-17T21:46:36.306Z,50.00
2022-12-17T21:49:05.848Z,50.53
2022-12-17T21:51:33.716Z,49.47
2022-12-17T21:54:08.389Z,50.53
2022-12-17T21:56:36.820Z,52.70
2022-12-17T21:59:05.080Z,59.72
2022-12-17T22:01:34.567Z,58.08
2022-12-17T22:04:05.639Z,52.63
2022-12-17T22:06:46.758Z,53.27
2022-12-17T22:09:37.779Z,56.28
2022-12-17T22:12:27.573Z,57.83
2022-12-17T22:14:55.227Z,56.67
2022-12-17T22:17:23.466Z,55.85
2022-12-17T22:19:52.487Z,56.20
2022-12-17T22:22:20.144Z,56.50
2022-12-17T22:24:47.832Z,46.50
2022-12-17T22:27:16.679Z,46.35
2022-12-17T22:30:01.788Z,53.35
2022-12-17T22:32:58.572Z,60.85
2022-12-17T22:36:30.758Z,48.42
2022-12-17T22:40:44.822Z,64.45
2022-12-17T22:44:33.955Z,51.63
2022-12-17T22:44:44.343Z,49.65
2022-12-17T22:46:42.259Z,54.85
2022-12-17T22:49:10.291Z,47.08
2022-12-17T22:51:40.969Z,54.10
2022-12-17T22:57:07.641Z,54.20
2022-12-17T22:59:26.571Z,51.63
2022-12-17T23:01:54.326Z,50.42
2022-12-17T23:04:22.154Z,55.92
2022-12-17T23:06:51.252Z,47.55
2022-12-17T23:09:20.197Z,56.20
2022-12-17T23:11:48.513Z,51.78
2022-12-17T23:14:17.029Z,54.40
2022-12-17T23:16:44.908Z,52.22
2022-12-17T23:19:16.075Z,52.53
2022-12-17T23:21:43.850Z,55.10
2022-12-17T23:24:12.911Z,55.35
2022-12-17T23:26:40.876Z,52.55
2022-12-17T23:29:13.585Z,53.85
2022-12-17T23:31:43.909Z,53.70
2022-12-17T23:34:11.590Z,54.25
2022-12-17T23:36:39.240Z,54.47
2022-12-17T23:39:07.270Z,59.13
2022-12-17T23:41:36.400Z,58.97
2022-12-17T23:44:04.055Z,61.45
2022-12-17T23:46:31.866Z,49.92
2022-12-17T23:49:00.184Z,56.63
2022-12-17T23:51:28.162Z,63.80
2022-12-17T23:53:55.933Z,64.72
2022-12-17T23:56:26.115Z,62.92
2022-12-17T23:58:56.586Z,57.03
